createdAt,value
2023-05-02T00:00:42.838Z,35.95
2023-05-02T00:01:42.871Z,35.97
2023-05-02T00:02:43.031Z,35.94
2023-05-02T00:03:42.936Z,35.96
2023-05-02T00:04:43.204Z,35.94
2023-05-02T00:05:42.820Z,35.95
2023-05-02T00:06:42.882Z,35.98
2023-05-02T00:07:42.793Z,35.97
2023-05-02T00:08:42.779Z,35.96
2023-05-02T00:09:42.800Z,35.96
2023-05-02T00:10:42.832Z,35.96
2023-05-02T00:11:42.786Z,35.93
2023-05-02T00:12:42.794Z,35.95
2023-05-02T00:13:42.766Z,35.95
2023-05-02T00:14:43.607Z,35.93
2023-05-02T00:15:42.775Z,35.94
2023-05-02T00:16:42.815Z,35.93
2023-05-02T00:17:42.791Z,35.93
2023-05-02T00:18:42.772Z,35.94
2023-05-02T00:19:42.727Z,35.93
2023-05-02T00:20:42.734Z,35.94
2023-05-02T00:21:42.714Z,35.93
2023-05-02T00:22:42.686Z,35.92
2023-05-02T00:23:42.708Z,35.95
2023-05-02T00:24:43.084Z,35.95
2023-05-02T00:25:42.740Z,35.92
2023-05-02T00:26:42.759Z,35.92
2023-05-02T00:27:42.820Z,35.92
2023-05-02T00:28:42.902Z,35.93
2023-05-02T00:29:42.954Z,35.91
2023-05-02T00:30:43.018Z,35.92
2023-05-02T00:31:43.207Z,35.92
2023-05-02T00:32:43.187Z,35.92
2023-05-02T00:33:43.200Z,35.89
2023-05-02T00:34:43.582Z,35.93
2023-05-02T00:35:43.333Z,35.90
2023-05-02T00:36:43.347Z,35.93
2023-05-02T00:37:43.407Z,35.94
2023-05-02T00:38:43.482Z,35.94
2023-05-02T00:39:43.534Z,35.93
2023-05-02T00:40:43.564Z,35.94
2023-05-02T00:41:43.656Z,35.93
2023-05-02T00:42:43.721Z,35.90
2023-05-02T00:43:43.729Z,35.91
2023-05-02T00:44:43.783Z,35.92
2023-05-02T00:45:43.834Z,35.92
2023-05-02T00:46:43.938Z,35.91
2023-05-02T00:47:43.976Z,35.91
2023-05-02T00:48:44.039Z,35.92
2023-05-02T00:49:45.578Z,35.89
2023-05-02T00:50:44.120Z,35.90
2023-05-02T00:51:44.196Z,35.88
2023-05-02T00:52:44.219Z,35.87
2023-05-02T00:53:44.270Z,35.88
2023-05-02T00:54:44.414Z,35.90
2023-05-02T00:55:44.384Z,35.87
2023-05-02T00:56:44.437Z,35.87
2023-05-02T00:57:44.478Z,35.89
2023-05-02T00:58:44.545Z,35.90
2023-05-02T00:59:44.607Z,35.89
2023-05-02T01:00:44.646Z,35.89
2023-05-02T01:01:44.870Z,35.90
2023-05-02T01:02:44.915Z,35.89
2023-05-02T01:03:44.904Z,35.90
2023-05-02T01:04:44.896Z,35.89
2023-05-02T01:05:44.921Z,35.90
2023-05-02T01:06:45.155Z,35.91
2023-05-02T01:07:45.035Z,35.89
2023-05-02T01:08:45.086Z,35.88
2023-05-02T01:09:45.149Z,35.90
2023-05-02T01:10:45.201Z,35.90
2023-05-02T01:11:45.258Z,35.88
2023-05-02T01:12:45.319Z,35.86
2023-05-02T01:13:45.396Z,35.88
2023-05-02T01:14:45.456Z,35.91
2023-05-02T01:15:45.562Z,35.89
2023-05-02T01:16:45.551Z,35.89
2023-05-02T01:17:45.610Z,35.89
2023-05-02T01:18:45.606Z,35.90
2023-05-02T01:19:45.663Z,35.90
2023-05-02T01:20:45.722Z,35.88
2023-05-02T01:21:45.771Z,35.87
2023-05-02T01:22:45.779Z,35.85
2023-05-02T01:23:45.827Z,35.83
2023-05-02T01:24:45.904Z,35.88
2023-05-02T01:25:45.938Z,35.90
2023-05-02T01:26:46.029Z,35.87
2023-05-02T01:27:46.051Z,35.86
2023-05-02T01:28:46.085Z,35.87
2023-05-02T01:29:46.182Z,35.91
2023-05-02T01:30:46.247Z,35.90
2023-05-02T01:31:46.321Z,35.89
2023-05-02T01:32:46.385Z,35.88
2023-05-02T01:33:46.386Z,35.88
2023-05-02T01:34:46.464Z,35.90
2023-05-02T01:35:46.490Z,35.89
2023-05-02T01:36:46.559Z,35.85
2023-05-02T01:37:46.590Z,35.88
2023-05-02T01:38:46.661Z,35.87
2023-05-02T01:39:46.686Z,35.88
2023-05-02T01:40:46.765Z,35.88
2023-05-02T01:41:46.841Z,35.87
2023-05-02T01:42:46.864Z,35.88
2023-05-02T01:43:46.911Z,35.88
2023-05-02T01:44:46.979Z,35.89
2023-05-02T01:45:47.029Z,35.88
2023-05-02T01:46:47.132Z,35.89
2023-05-02T01:47:47.192Z,35.91
2023-05-02T01:48:47.190Z,35.90
2023-05-02T01:49:47.278Z,35.89
2023-05-02T01:50:47.319Z,35.88
2023-05-02T01:51:47.376Z,35.90
2023-05-02T01:52:47.398Z,35.88
2023-05-02T01:53:47.460Z,35.88
2023-05-02T01:54:47.524Z,35.85
2023-05-02T01:55:47.593Z,35.88
2023-05-02T01:56:47.609Z,35.86
2023-05-02T01:57:47.678Z,35.87
2023-05-02T01:58:47.724Z,35.83
2023-05-02T01:59:47.780Z,35.83
2023-05-02T02:00:47.834Z,35.85
2023-05-02T02:01:47.885Z,35.83
2023-05-02T02:02:47.986Z,35.84
2023-05-02T02:03:48.025Z,35.84
2023-05-02T02:04:48.114Z,35.85
2023-05-02T02:05:48.110Z,35.86
2023-05-02T02:06:48.343Z,35.88
2023-05-02T02:07:48.231Z,35.86
2023-05-02T02:08:48.247Z,35.88
2023-05-02T02:09:48.312Z,35.88
2023-05-02T02:10:48.392Z,35.85
2023-05-02T02:11:48.408Z,35.85
2023-05-02T02:12:48.446Z,35.85
2023-05-02T02:13:48.489Z,35.85
2023-05-02T02:14:48.560Z,35.84
2023-05-02T02:15:48.593Z,35.84
2023-05-02T02:16:48.710Z,35.84
2023-05-02T02:17:48.783Z,35.82
2023-05-02T02:18:48.764Z,35.84
2023-05-02T02:19:48.819Z,35.81
2023-05-02T02:20:48.875Z,35.84
2023-05-02T02:21:48.907Z,35.83
2023-05-02T02:22:48.997Z,35.82
2023-05-02T02:23:49.034Z,35.83
2023-05-02T02:24:49.119Z,35.85
2023-05-02T02:25:49.121Z,35.85
2023-05-02T02:26:49.191Z,35.84
2023-05-02T02:27:49.279Z,35.85
2023-05-02T02:28:49.285Z,35.84
2023-05-02T02:29:49.357Z,35.82
2023-05-02T02:30:49.437Z,35.85
2023-05-02T02:31:49.494Z,35.85
2023-05-02T02:32:49.533Z,35.84
2023-05-02T02:33:49.583Z,35.82
2023-05-02T02:34:49.601Z,35.82
2023-05-02T02:35:49.665Z,35.85
2023-05-02T02:36:49.727Z,35.81
2023-05-02T02:37:49.788Z,35.83
2023-05-02T02:38:49.842Z,35.81
2023-05-02T02:39:49.907Z,35.80
2023-05-02T02:40:49.943Z,35.83
2023-05-02T02:41:49.985Z,35.83
2023-05-02T02:42:50.054Z,35.82
2023-05-02T02:43:50.116Z,35.85
2023-05-02T02:44:50.226Z,35.82
2023-05-02T02:45:50.239Z,35.84
2023-05-02T02:46:50.316Z,35.85
2023-05-02T02:47:50.368Z,35.85
2023-05-02T02:48:50.391Z,35.86
2023-05-02T02:49:50.472Z,35.84
2023-05-02T02:50:50.469Z,35.85
2023-05-02T02:51:50.530Z,35.83
2023-05-02T02:52:50.562Z,35.81
2023-05-02T02:53:50.610Z,35.82
2023-05-02T02:54:50.678Z,35.82
2023-05-02T02:55:50.780Z,35.83
2023-05-02T02:56:50.758Z,35.83
2023-05-02T02:57:50.829Z,35.84
2023-05-02T02:58:50.885Z,35.86
2023-05-02T02:59:50.925Z,35.83
2023-05-02T03:00:51.015Z,35.83
2023-05-02T03:01:51.056Z,35.83
2023-05-02T03:02:51.089Z,35.84
2023-05-02T03:03:51.215Z,35.84
2023-05-02T03:04:51.220Z,35.84
2023-05-02T03:05:51.294Z,35.84
2023-05-02T03:06:51.402Z,35.82
2023-05-02T03:07:51.423Z,35.82
2023-05-02T03:08:51.489Z,35.84
2023-05-02T03:09:51.496Z,35.84
2023-05-02T03:10:51.553Z,35.83
2023-05-02T03:11:51.578Z,35.84
2023-05-02T03:12:51.649Z,35.81
2023-05-02T03:13:51.688Z,35.81
2023-05-02T03:14:51.769Z,35.84
2023-05-02T03:15:51.880Z,35.80
2023-05-02T03:16:51.850Z,35.80
2023-05-02T03:17:51.939Z,35.83
2023-05-02T03:18:51.965Z,35.82
2023-05-02T03:19:52.021Z,35.79
2023-05-02T03:20:52.063Z,35.81
2023-05-02T03:21:52.136Z,35.80
2023-05-02T03:22:52.192Z,35.83
2023-05-02T03:23:52.273Z,35.82
2023-05-02T03:24:52.334Z,35.80
2023-05-02T03:25:52.379Z,35.80
2023-05-02T03:26:52.424Z,35.77
2023-05-02T03:27:52.444Z,35.81
2023-05-02T03:28:52.515Z,35.81
2023-05-02T03:29:52.584Z,35.80
2023-05-02T03:30:52.627Z,35.79
2023-05-02T03:31:52.790Z,35.82
2023-05-02T03:32:52.754Z,35.80
2023-05-02T03:33:52.784Z,35.82
2023-05-02T03:34:52.881Z,35.80
2023-05-02T03:35:52.878Z,35.82
2023-05-02T03:36:52.938Z,35.81
2023-05-02T03:37:53.012Z,35.81
2023-05-02T03:38:53.038Z,35.81
2023-05-02T03:39:53.098Z,35.82
2023-05-02T03:40:53.140Z,35.83
2023-05-02T03:41:53.214Z,35.84
2023-05-02T03:42:53.252Z,35.84
2023-05-02T03:43:53.346Z,35.85
2023-05-02T03:44:53.386Z,35.83
2023-05-02T03:45:53.424Z,35.84
2023-05-02T03:46:53.520Z,35.84
2023-05-02T03:47:53.605Z,35.85
2023-05-02T03:48:53.621Z,35.82
2023-05-02T03:49:54.678Z,35.82
2023-05-02T03:50:53.711Z,35.84
2023-05-02T03:51:53.778Z,35.82
2023-05-02T03:52:53.857Z,35.82
2023-05-02T03:53:53.882Z,35.83
2023-05-02T03:54:53.937Z,35.83
2023-05-02T03:55:53.988Z,35.83
2023-05-02T03:56:54.045Z,35.83
2023-05-02T03:57:54.086Z,35.84
2023-05-02T03:58:54.124Z,35.84
2023-05-02T03:59:54.191Z,35.82
2023-05-02T04:00:54.242Z,35.83
2023-05-02T04:01:54.359Z,35.83
2023-05-02T04:02:54.363Z,35.83
2023-05-02T04:03:54.488Z,35.82
2023-05-02T04:04:54.508Z,35.83
2023-05-02T04:05:54.541Z,35.82
2023-05-02T04:06:54.622Z,35.80
2023-05-02T04:07:54.595Z,35.79
2023-05-02T04:08:54.679Z,35.80
2023-05-02T04:09:54.718Z,35.79
2023-05-02T04:10:54.732Z,35.80
2023-05-02T04:11:54.853Z,35.79
2023-05-02T04:12:54.839Z,35.78
2023-05-02T04:13:54.898Z,35.77
2023-05-02T04:14:54.957Z,35.77
2023-05-02T04:15:55.020Z,35.81
2023-05-02T04:16:55.176Z,35.80
2023-05-02T04:17:55.138Z,35.79
2023-05-02T04:18:55.204Z,35.78
2023-05-02T04:19:55.297Z,35.77
2023-05-02T04:20:55.313Z,35.77
2023-05-02T04:21:55.357Z,35.79
2023-05-02T04:22:55.404Z,35.78
2023-05-02T04:23:55.469Z,35.76
2023-05-02T04:24:55.523Z,35.76
2023-05-02T04:25:55.595Z,35.78
2023-05-02T04:26:55.646Z,35.79
2023-05-02T04:27:55.671Z,35.80
2023-05-02T04:28:55.711Z,35.80
2023-05-02T04:29:55.825Z,35.80
2023-05-02T04:30:55.862Z,35.77
2023-05-02T04:31:55.889Z,35.79
2023-05-02T04:32:55.966Z,35.78
2023-05-02T04:33:56.021Z,35.80
2023-05-02T04:34:56.015Z,35.80
2023-05-02T04:35:56.063Z,35.78
2023-05-02T04:36:56.136Z,35.79
2023-05-02T04:37:56.163Z,35.77
2023-05-02T04:38:56.206Z,35.77
2023-05-02T04:39:56.286Z,35.78
2023-05-02T04:40:56.295Z,35.79
2023-05-02T04:41:56.430Z,35.77
2023-05-02T04:42:56.409Z,35.78
2023-05-02T04:43:56.461Z,35.76
2023-05-02T04:44:56.543Z,35.78
2023-05-02T04:45:56.618Z,35.80
2023-05-02T04:46:56.653Z,35.79
2023-05-02T04:47:56.728Z,35.76
2023-05-02T04:48:56.724Z,35.79
2023-05-02T04:49:56.889Z,35.78
2023-05-02T04:50:56.880Z,35.78
2023-05-02T04:51:57.005Z,35.79
2023-05-02T04:52:56.968Z,35.80
2023-05-02T04:53:57.005Z,35.82
2023-05-02T04:54:57.126Z,35.84
2023-05-02T04:55:57.123Z,35.87
2023-05-02T04:56:57.199Z,35.87
2023-05-02T04:57:57.224Z,35.91
2023-05-02T04:58:57.298Z,35.96
2023-05-02T04:59:57.485Z,35.93
2023-05-02T05:00:57.396Z,35.97
2023-05-02T05:01:57.534Z,36.01
2023-05-02T05:02:59.278Z,36.04
2023-05-02T05:03:57.617Z,36.10
2023-05-02T05:04:57.521Z,36.10
2023-05-02T05:05:57.512Z,36.15
2023-05-02T05:06:57.537Z,36.13
2023-05-02T05:07:57.536Z,36.16
2023-05-02T05:08:57.474Z,36.17
2023-05-02T05:09:57.582Z,36.25
2023-05-02T05:10:57.549Z,36.27
2023-05-02T05:11:57.453Z,36.25
2023-05-02T05:12:57.457Z,36.29
2023-05-02T05:13:57.455Z,36.31
2023-05-02T05:14:57.427Z,36.34
2023-05-02T05:15:57.495Z,36.36
2023-05-02T05:16:57.574Z,36.41
2023-05-02T05:17:57.514Z,36.39
2023-05-02T05:18:57.449Z,36.41
2023-05-02T05:19:57.684Z,36.43
2023-05-02T05:20:57.452Z,36.44
2023-05-02T05:21:57.398Z,36.44
2023-05-02T05:22:57.437Z,36.45
2023-05-02T05:24:00.212Z,36.56
2023-05-02T05:24:57.376Z,36.65
2023-05-02T05:25:57.400Z,36.63
2023-05-02T05:26:58.222Z,36.67
2023-05-02T05:27:57.368Z,36.64
2023-05-02T05:28:58.208Z,36.64
2023-05-02T05:29:58.286Z,36.61
2023-05-02T05:30:57.316Z,36.57
2023-05-02T05:31:57.383Z,36.58
2023-05-02T05:32:57.372Z,36.66
2023-05-02T05:33:57.337Z,38.36
2023-05-02T05:34:57.695Z,37.77
2023-05-02T05:35:57.301Z,38.71
2023-05-02T05:36:59.164Z,39.65
2023-05-02T05:37:57.911Z,38.97
2023-05-02T05:38:57.266Z,38.45
2023-05-02T05:39:57.447Z,38.54
2023-05-02T05:40:57.327Z,38.27
2023-05-02T05:41:57.264Z,38.18
2023-05-02T05:42:57.257Z,38.27
2023-05-02T05:43:57.309Z,38.33
2023-05-02T05:44:57.276Z,38.49
2023-05-02T05:45:57.273Z,38.50
2023-05-02T05:46:58.289Z,38.44
2023-05-02T05:47:57.458Z,38.41
2023-05-02T05:48:58.207Z,38.18
2023-05-02T05:49:57.921Z,38.13
2023-05-02T05:50:57.514Z,38.19
2023-05-02T05:51:57.568Z,38.22
2023-05-02T05:53:00.194Z,38.09
2023-05-02T05:53:57.971Z,37.94
2023-05-02T05:54:58.273Z,37.94
2023-05-02T05:55:57.940Z,38.00
2023-05-02T05:56:58.813Z,38.03
2023-05-02T05:57:58.276Z,38.09
2023-05-02T05:58:58.336Z,38.22
2023-05-02T05:59:58.444Z,38.33
2023-05-02T06:00:59.227Z,38.28
2023-05-02T06:01:58.305Z,39.45
2023-05-02T06:02:58.426Z,39.95
2023-05-02T06:03:58.462Z,39.75
2023-05-02T06:04:58.515Z,39.69
2023-05-02T06:05:58.577Z,39.36
2023-05-02T06:06:58.590Z,39.09
2023-05-02T06:07:58.577Z,38.50
2023-05-02T06:08:58.648Z,38.05
2023-05-02T06:09:58.864Z,37.85
2023-05-02T06:10:58.679Z,37.72
2023-05-02T06:11:58.770Z,37.64
2023-05-02T06:12:58.807Z,37.56
2023-05-02T06:13:58.884Z,37.51
2023-05-02T06:14:58.900Z,37.37
2023-05-02T06:15:59.217Z,37.38
2023-05-02T06:16:59.016Z,37.31
2023-05-02T06:17:59.041Z,37.22
2023-05-02T06:18:59.153Z,37.27
2023-05-02T06:19:59.478Z,37.19
2023-05-02T06:20:59.259Z,37.20
2023-05-02T06:21:59.307Z,37.14
2023-05-02T06:22:59.367Z,37.20
2023-05-02T06:23:59.380Z,37.18
2023-05-02T06:24:59.454Z,37.12
2023-05-02T06:25:59.483Z,37.08
2023-05-02T06:26:59.541Z,37.07
2023-05-02T06:27:59.673Z,37.10
2023-05-02T06:28:59.658Z,37.05
2023-05-02T06:30:00.052Z,37.06
2023-05-02T06:30:59.922Z,37.07
2023-05-02T06:31:59.878Z,37.00
2023-05-02T06:33:00.023Z,37.01
2023-05-02T06:33:59.923Z,36.98
2023-05-02T06:34:59.993Z,36.98
2023-05-02T06:36:01.967Z,36.98
2023-05-02T06:37:00.229Z,37.01
2023-05-02T06:38:00.281Z,37.07
2023-05-02T06:39:00.315Z,37.14
2023-05-02T06:40:00.992Z,37.14
2023-05-02T06:41:00.352Z,37.11
2023-05-02T06:42:00.607Z,37.20
2023-05-02T06:43:00.475Z,37.23
2023-05-02T06:44:00.527Z,37.26
2023-05-02T06:45:00.557Z,37.41
2023-05-02T06:46:00.633Z,37.44
2023-05-02T06:47:00.826Z,37.42
2023-05-02T06:48:00.806Z,37.46
2023-05-02T06:49:00.850Z,37.52
2023-05-02T06:50:01.170Z,37.45
2023-05-02T06:51:00.883Z,37.42
2023-05-02T06:52:01.407Z,37.44
2023-05-02T06:53:01.174Z,37.39
2023-05-02T06:54:01.040Z,37.40
2023-05-02T06:55:01.081Z,37.38
2023-05-02T06:56:01.156Z,37.35
2023-05-02T06:57:01.168Z,37.33
2023-05-02T06:58:01.761Z,37.33
2023-05-02T06:59:01.311Z,37.36
2023-05-02T07:00:02.763Z,37.32
2023-05-02T07:01:01.436Z,37.33
2023-05-02T07:02:03.043Z,37.39
2023-05-02T07:03:01.466Z,37.44
2023-05-02T07:04:01.499Z,37.48
2023-05-02T07:05:01.420Z,37.64
2023-05-02T07:06:01.442Z,37.81
2023-05-02T07:07:01.537Z,37.90
2023-05-02T07:08:01.499Z,37.88
2023-05-02T07:09:01.421Z,38.06
2023-05-02T07:10:01.935Z,38.11
2023-05-02T07:11:01.402Z,38.11
2023-05-02T07:12:01.351Z,38.15
2023-05-02T07:13:01.360Z,38.26
2023-05-02T07:14:01.361Z,38.21
2023-05-02T07:15:01.351Z,38.25
2023-05-02T07:16:01.386Z,38.22
2023-05-02T07:17:01.364Z,38.14
2023-05-02T07:18:01.412Z,38.15
2023-05-02T07:19:01.343Z,38.15
2023-05-02T07:20:01.431Z,38.14
2023-05-02T07:21:01.359Z,38.08
2023-05-02T07:22:01.415Z,38.02
2023-05-02T07:23:01.739Z,37.95
2023-05-02T07:24:01.288Z,37.83
2023-05-02T07:25:01.275Z,37.84
2023-05-02T07:26:01.243Z,37.74
2023-05-02T07:27:01.300Z,37.69
2023-05-02T07:28:01.244Z,37.67
2023-05-02T07:29:01.297Z,37.66
2023-05-02T07:30:01.637Z,37.63
2023-05-02T07:31:01.223Z,37.62
2023-05-02T07:32:01.327Z,37.64
2023-05-02T07:33:01.438Z,37.88
2023-05-02T07:34:01.370Z,37.96
2023-05-02T07:35:03.287Z,38.00
2023-05-02T07:36:01.451Z,38.05
2023-05-02T07:37:01.560Z,38.24
2023-05-02T07:38:01.597Z,38.26
2023-05-02T07:39:01.599Z,38.28
2023-05-02T07:40:02.120Z,38.31
2023-05-02T07:41:01.716Z,38.32
2023-05-02T07:42:01.813Z,38.33
2023-05-02T07:43:01.819Z,38.29
2023-05-02T07:44:01.856Z,38.25
2023-05-02T07:45:01.996Z,38.15
2023-05-02T07:46:02.019Z,38.13
2023-05-02T07:47:02.066Z,38.09
2023-05-02T07:48:02.118Z,38.18
2023-05-02T07:49:02.095Z,38.18
2023-05-02T07:50:02.290Z,38.11
2023-05-02T07:51:02.240Z,38.13
2023-05-02T07:52:02.228Z,38.11
2023-05-02T07:53:02.290Z,37.95
2023-05-02T07:54:02.348Z,37.87
2023-05-02T07:55:02.767Z,37.88
2023-05-02T07:56:02.479Z,37.90
2023-05-02T07:57:02.680Z,37.86
2023-05-02T07:58:02.620Z,37.90
2023-05-02T07:59:04.982Z,38.11
2023-05-02T08:00:03.190Z,38.41
2023-05-02T08:01:02.674Z,38.47
2023-05-02T08:02:02.648Z,38.42
2023-05-02T08:03:02.797Z,38.31
2023-05-02T08:04:02.753Z,38.33
2023-05-02T08:05:02.723Z,38.39
2023-05-02T08:06:02.643Z,38.20
2023-05-02T08:07:02.564Z,38.07
2023-05-02T08:08:02.561Z,38.09
2023-05-02T08:09:02.620Z,38.09
2023-05-02T08:10:03.048Z,38.34
2023-05-02T08:11:02.530Z,38.29
2023-05-02T08:12:02.504Z,38.16
2023-05-02T08:13:02.524Z,37.98
2023-05-02T08:14:02.561Z,37.95
2023-05-02T08:15:02.770Z,37.95
2023-05-02T08:16:02.518Z,37.87
2023-05-02T08:17:02.663Z,37.89
2023-05-02T08:18:02.682Z,37.93
2023-05-02T08:19:02.505Z,37.96
2023-05-02T08:20:02.895Z,38.06
2023-05-02T08:21:02.487Z,38.03
2023-05-02T08:22:02.458Z,38.07
2023-05-02T08:23:02.453Z,37.95
2023-05-02T08:24:02.548Z,38.23
2023-05-02T08:25:02.427Z,38.20
2023-05-02T08:26:03.395Z,38.18
2023-05-02T08:27:02.568Z,38.24
2023-05-02T08:28:02.407Z,38.52
2023-05-02T08:29:02.382Z,38.47
2023-05-02T08:30:02.756Z,38.35
2023-05-02T08:31:03.287Z,38.26
2023-05-02T08:32:02.511Z,38.25
2023-05-02T08:33:02.416Z,38.27
2023-05-02T08:34:02.422Z,38.26
2023-05-02T08:35:02.441Z,38.22
2023-05-02T08:36:02.502Z,38.18
2023-05-02T08:37:02.493Z,38.15
2023-05-02T08:38:02.563Z,38.15
2023-05-02T08:39:02.572Z,38.15
2023-05-02T08:40:02.829Z,38.19
2023-05-02T08:41:02.643Z,38.49
2023-05-02T08:42:02.672Z,38.66
2023-05-02T08:43:03.277Z,39.15
2023-05-02T08:44:02.735Z,39.59
2023-05-02T08:45:02.821Z,39.31
2023-05-02T08:46:02.804Z,39.26
2023-05-02T08:47:02.983Z,39.17
2023-05-02T08:48:02.984Z,39.15
2023-05-02T08:49:02.937Z,39.13
2023-05-02T08:50:03.377Z,39.11
2023-05-02T08:51:03.023Z,39.03
2023-05-02T08:52:03.138Z,39.03
2023-05-02T08:53:03.122Z,38.95
2023-05-02T08:54:03.166Z,38.92
2023-05-02T08:55:03.382Z,38.85
2023-05-02T08:56:03.219Z,38.81
2023-05-02T08:57:03.259Z,38.79
2023-05-02T08:58:03.253Z,38.76
2023-05-02T08:59:03.422Z,38.73
2023-05-02T09:00:03.333Z,38.72
2023-05-02T09:01:03.522Z,38.70
2023-05-02T09:02:03.422Z,38.69
2023-05-02T09:03:03.593Z,38.64
2023-05-02T09:04:03.514Z,38.70
2023-05-02T09:05:03.729Z,38.69
2023-05-02T09:06:03.690Z,38.64
2023-05-02T09:07:03.637Z,38.67
2023-05-02T09:08:03.671Z,38.71
2023-05-02T09:09:03.795Z,38.64
2023-05-02T09:10:03.782Z,38.63
2023-05-02T09:11:03.783Z,38.66
2023-05-02T09:12:03.796Z,38.60
2023-05-02T09:13:03.864Z,38.63
2023-05-02T09:14:03.895Z,38.63
2023-05-02T09:15:03.855Z,38.60
2023-05-02T09:16:03.922Z,38.58
2023-05-02T09:17:04.048Z,38.56
2023-05-02T09:18:03.998Z,38.53
2023-05-02T09:19:03.970Z,38.46
2023-05-02T09:20:04.002Z,38.48
2023-05-02T09:21:04.016Z,38.51
2023-05-02T09:22:04.122Z,38.48
2023-05-02T09:23:04.107Z,38.42
2023-05-02T09:24:04.128Z,38.46
2023-05-02T09:25:04.086Z,38.70
2023-05-02T09:26:04.153Z,38.74
2023-05-02T09:27:04.184Z,38.64
2023-05-02T09:28:04.157Z,38.57
2023-05-02T09:29:04.211Z,38.54
2023-05-02T09:30:04.238Z,38.59
2023-05-02T09:31:04.288Z,38.56
2023-05-02T09:32:04.283Z,38.61
2023-05-02T09:33:04.352Z,38.62
2023-05-02T09:34:04.308Z,38.90
2023-05-02T09:35:04.356Z,39.54
2023-05-02T09:36:04.384Z,39.73
2023-05-02T09:37:04.372Z,39.48
2023-05-02T09:38:04.863Z,39.35
2023-05-02T09:39:04.426Z,39.27
2023-05-02T09:40:04.419Z,39.30
2023-05-02T09:41:04.512Z,39.28
2023-05-02T09:42:04.481Z,39.25
2023-05-02T09:43:04.519Z,39.19
2023-05-02T09:44:04.690Z,39.07
2023-05-02T09:45:04.620Z,39.02
2023-05-02T09:46:04.982Z,38.96
2023-05-02T09:47:04.588Z,38.92
2023-05-02T09:48:05.375Z,39.04
2023-05-02T09:49:04.676Z,39.03
2023-05-02T09:50:04.789Z,39.07
2023-05-02T09:51:04.735Z,38.92
2023-05-02T09:52:04.946Z,38.92
2023-05-02T09:53:04.823Z,38.90
2023-05-02T09:54:04.835Z,38.89
2023-05-02T09:55:04.851Z,38.85
2023-05-02T09:56:05.366Z,38.82
2023-05-02T09:57:05.001Z,38.77
2023-05-02T09:58:05.015Z,38.74
2023-05-02T09:59:05.000Z,38.93
2023-05-02T10:00:05.085Z,38.85
2023-05-02T10:01:05.139Z,38.70
2023-05-02T10:02:05.185Z,38.69
2023-05-02T10:03:05.173Z,38.64
2023-05-02T10:04:05.260Z,38.62
2023-05-02T10:05:05.223Z,38.63
2023-05-02T10:06:05.623Z,38.53
2023-05-02T10:07:05.335Z,38.56
2023-05-02T10:08:05.356Z,38.54
2023-05-02T10:09:05.418Z,38.46
2023-05-02T10:10:05.452Z,38.45
2023-05-02T10:11:05.510Z,38.52
2023-05-02T10:12:05.589Z,38.54
2023-05-02T10:13:05.612Z,38.52
2023-05-02T10:14:05.665Z,38.43
2023-05-02T10:15:05.657Z,38.40
2023-05-02T10:16:05.769Z,38.43
2023-05-02T10:17:05.713Z,38.43
2023-05-02T10:18:05.813Z,38.71
2023-05-02T10:19:05.787Z,38.60
2023-05-02T10:20:05.874Z,38.77
2023-05-02T10:21:05.865Z,39.38
2023-05-02T10:22:05.913Z,39.33
2023-05-02T10:23:05.963Z,39.24
2023-05-02T10:24:06.021Z,39.20
2023-05-02T10:25:05.996Z,39.16
2023-05-02T10:26:06.085Z,39.42
2023-05-02T10:27:06.788Z,39.39
2023-05-02T10:28:06.855Z,39.30
2023-05-02T10:29:06.100Z,39.19
2023-05-02T10:30:06.087Z,39.53
2023-05-02T10:31:06.202Z,39.58
2023-05-02T10:32:06.251Z,39.53
2023-05-02T10:33:06.269Z,39.66
2023-05-02T10:34:06.162Z,39.61
2023-05-02T10:35:06.169Z,39.64
2023-05-02T10:36:06.183Z,39.56
2023-05-02T10:37:06.200Z,39.37
2023-05-02T10:38:06.274Z,39.15
2023-05-02T10:39:06.226Z,38.97
2023-05-02T10:40:06.406Z,38.92
2023-05-02T10:41:06.265Z,38.77
2023-05-02T10:42:06.294Z,38.65
2023-05-02T10:43:06.403Z,38.57
2023-05-02T10:44:06.344Z,38.32
2023-05-02T10:45:06.369Z,38.27
2023-05-02T10:46:06.382Z,38.18
2023-05-02T10:47:06.578Z,38.07
2023-05-02T10:48:06.476Z,37.99
2023-05-02T10:49:06.459Z,37.96
2023-05-02T10:50:06.489Z,37.88
2023-05-02T10:51:06.533Z,37.91
2023-05-02T10:52:06.555Z,37.91
2023-05-02T10:53:06.605Z,37.98
2023-05-02T10:54:06.618Z,38.04
2023-05-02T10:55:06.631Z,42.03
2023-05-02T10:56:06.659Z,41.70
2023-05-02T10:57:06.687Z,40.88
2023-05-02T10:58:06.844Z,40.96
2023-05-02T10:59:06.789Z,40.64
2023-05-02T11:00:06.741Z,40.08
2023-05-02T11:01:06.818Z,40.42
2023-05-02T11:02:07.895Z,41.14
2023-05-02T11:03:07.067Z,40.38
2023-05-02T11:04:06.867Z,40.27
2023-05-02T11:05:06.892Z,40.17
2023-05-02T11:06:06.944Z,40.38
2023-05-02T11:07:06.944Z,40.61
2023-05-02T11:08:07.102Z,40.28
2023-05-02T11:09:06.953Z,40.22
2023-05-02T11:10:06.978Z,40.26
2023-05-02T11:11:07.029Z,40.35
2023-05-02T11:12:07.041Z,40.44
2023-05-02T11:13:07.105Z,40.31
2023-05-02T11:14:07.055Z,40.18
2023-05-02T11:15:07.087Z,40.99
2023-05-02T11:16:07.269Z,40.67
2023-05-02T11:17:07.166Z,40.38
2023-05-02T11:18:07.328Z,40.63
2023-05-02T11:19:07.198Z,42.38
2023-05-02T11:20:07.237Z,42.37
2023-05-02T11:21:07.228Z,42.52
2023-05-02T11:22:07.349Z,42.39
2023-05-02T11:23:07.251Z,41.50
2023-05-02T11:24:07.274Z,41.12
2023-05-02T11:25:07.269Z,40.98
2023-05-02T11:26:07.218Z,40.95
2023-05-02T11:27:07.221Z,40.87
2023-05-02T11:28:07.260Z,40.93
2023-05-02T11:29:07.256Z,40.87
2023-05-02T11:30:07.237Z,40.88
2023-05-02T11:31:07.256Z,40.93
2023-05-02T11:32:07.324Z,40.85
2023-05-02T11:33:07.315Z,40.79
2023-05-02T11:34:07.293Z,40.89
2023-05-02T11:35:07.288Z,40.87
2023-05-02T11:36:07.359Z,40.79
2023-05-02T11:37:07.332Z,40.82
2023-05-02T11:38:07.368Z,40.80
2023-05-02T11:39:07.366Z,40.65
2023-05-02T11:40:07.495Z,40.53
2023-05-02T11:41:07.429Z,40.64
2023-05-02T11:42:07.459Z,40.47
2023-05-02T11:43:07.481Z,40.45
2023-05-02T11:44:07.504Z,40.43
2023-05-02T11:45:08.342Z,40.38
2023-05-02T11:46:07.941Z,40.38
2023-05-02T11:47:07.583Z,40.28
2023-05-02T11:48:07.764Z,40.20
2023-05-02T11:49:09.339Z,40.25
2023-05-02T11:50:07.767Z,40.15
2023-05-02T11:51:07.803Z,40.18
2023-05-02T11:52:07.918Z,40.14
2023-05-02T11:53:16.370Z,40.07
2023-05-02T11:54:08.044Z,40.61
2023-05-02T11:55:09.084Z,40.41
2023-05-02T11:56:08.065Z,40.04
2023-05-02T11:57:08.096Z,40.07
2023-05-02T11:58:08.190Z,40.09
2023-05-02T11:59:08.353Z,40.28
2023-05-02T12:00:08.283Z,40.22
2023-05-02T12:01:09.565Z,40.12
2023-05-02T12:02:08.287Z,40.02
2023-05-02T12:03:08.307Z,39.99
2023-05-02T12:04:08.545Z,40.05
2023-05-02T12:05:08.392Z,40.09
2023-05-02T12:06:08.325Z,40.06
2023-05-02T12:07:10.130Z,40.04
2023-05-02T12:08:08.508Z,39.99
2023-05-02T12:09:08.846Z,40.10
2023-05-02T12:10:08.559Z,40.09
2023-05-02T12:11:08.593Z,40.05
2023-05-02T12:12:08.545Z,40.09
2023-05-02T12:13:10.048Z,40.07
2023-05-02T12:14:08.633Z,40.19
2023-05-02T12:15:08.657Z,40.21
2023-05-02T12:16:08.835Z,40.25
2023-05-02T12:17:08.750Z,40.24
2023-05-02T12:18:08.691Z,40.20
2023-05-02T12:19:08.669Z,40.28
2023-05-02T12:20:08.693Z,40.41
2023-05-02T12:21:08.702Z,40.73
2023-05-02T12:22:08.781Z,42.42
2023-05-02T12:23:08.708Z,42.33
2023-05-02T12:24:08.715Z,41.38
2023-05-02T12:25:08.737Z,41.77
2023-05-02T12:26:08.709Z,41.94
2023-05-02T12:27:08.737Z,41.63
2023-05-02T12:28:08.732Z,41.28
2023-05-02T12:29:08.742Z,41.23
2023-05-02T12:30:08.756Z,41.22
2023-05-02T12:31:08.778Z,40.74
2023-05-02T12:32:08.756Z,40.33
2023-05-02T12:33:08.844Z,39.78
2023-05-02T12:34:08.804Z,39.93
2023-05-02T12:35:08.811Z,40.00
2023-05-02T12:36:08.777Z,39.92
2023-05-02T12:37:08.788Z,39.33
2023-05-02T12:38:08.781Z,39.08
2023-05-02T12:39:08.964Z,39.02
2023-05-02T12:40:08.792Z,39.08
2023-05-02T12:41:08.774Z,39.29
2023-05-02T12:42:08.763Z,39.01
2023-05-02T12:43:08.767Z,38.81
2023-05-02T12:44:08.782Z,38.72
2023-05-02T12:45:08.786Z,38.81
2023-05-02T12:46:08.816Z,38.91
2023-05-02T12:48:08.851Z,38.99
2023-05-02T12:49:08.828Z,38.88
2023-05-02T12:50:08.798Z,38.90
2023-05-02T12:51:08.793Z,39.20
2023-05-02T12:52:08.804Z,39.46
2023-05-02T12:53:08.823Z,39.64
2023-05-02T12:54:08.828Z,39.78